sensor_id;sensor_type;location;lat;lon;timestamp;temperature;humidity
3226;DHT22;1625;49.884;8.666;2022-09-13T03:34:15;15.40;99.90
3226;DHT22;1625;49.884;8.666;2022-09-13T03:36:54;15.40;99.90
3226;DHT22;1625;49.884;8.666;2022-09-13T03:42:17;15.40;99.90
3226;DHT22;1625;49.884;8.666;2022-09-13T03:44:48;15.40;99.90
3226;DHT22;1625;49.884;8.666;2022-09-13T03:47:16;15.40;99.90
3226;DHT22;1625;49.884;8.666;2022-09-13T03:49:42;15.40;99.90
3226;DHT22;1625;49.884;8.666;2022-09-13T03:52:09;15.40;99.90
3226;DHT22;1625;49.884;8.666;2022-09-13T03:54:36;15.40;99.90
3226;DHT22;1625;49.884;8.666;2022-09-13T03:59:33;15.30;99.90
3226;DHT22;1625;49.884;8.666;2022-09-13T04:02:01;15.30;99.90
3226;DHT22;1625;49.884;8.666;2022-09-13T04:04:26;15.40;99.90
3226;DHT22;1625;49.884;8.666;2022-09-13T04:06:52;15.30;99.90
3226;DHT22;1625;49.884;8.666;2022-09-13T04:09:21;15.30;99.90
3226;DHT22;1625;49.884;8.666;2022-09-13T04:11:47;15.30;99.90
3226;DHT22;1625;49.884;8.666;2022-09-13T04:14:12;15.30;99.90
3226;DHT22;1625;49.884;8.666;2022-09-13T04:16:40;15.30;99.90
3226;DHT22;1625;49.884;8.666;2022-09-13T04:19:06;15.30;99.90
3226;DHT22;1625;49.884;8.666;2022-09-13T04:21:31;15.30;99.90
3226;DHT22;1625;49.884;8.666;2022-09-13T04:23:57;15.30;99.90
3226;DHT22;1625;49.884;8.666;2022-09-13T04:26:22;15.20;99.90
3226;DHT22;1625;49.884;8.666;2022-09-13T04:28:48;15.20;99.90
3226;DHT22;1625;49.884;8.666;2022-09-13T04:31:13;15.20;99.90
3226;DHT22;1625;49.884;8.666;2022-09-13T04:33:39;15.20;99.90
3226;DHT22;1625;49.884;8.666;2022-09-13T04:36:05;15.20;99.90
3226;DHT22;1625;49.884;8.666;2022-09-13T04:38:31;15.20;99.90
3226;DHT22;1625;49.884;8.666;2022-09-13T04:40:56;15.20;99.90
3226;DHT22;1625;49.884;8.666;2022-09-13T04:43:23;15.20;99.90
3226;DHT22;1625;49.884;8.666;2022-09-13T04:45:49;15.20;99.90
3226;DHT22;1625;49.884;8.666;2022-09-13T04:48:14;15.20;99.90
3226;DHT22;1625;49.884;8.666;2022-09-13T04:50:40;15.20;99.90
3226;DHT22;1625;49.884;8.666;2022-09-13T04:53:06;15.20;99.90
3226;DHT22;1625;49.884;8.666;2022-09-13T04:55:32;15.20;99.90
3226;DHT22;1625;49.884;8.666;2022-09-13T04:57:57;15.20;99.90
3226;DHT22;1625;49.884;8.666;2022-09-13T05:00:23;15.20;99.90
3226;DHT22;1625;49.884;8.666;2022-09-13T05:02:54;15.20;99.90
3226;DHT22;1625;49.884;8.666;2022-09-13T05:05:20;15.10;99.90
3226;DHT22;1625;49.884;8.666;2022-09-13T05:07:49;15.10;99.90
3226;DHT22;1625;49.884;8.666;2022-09-13T05:10:15;15.10;99.90
3226;DHT22;1625;49.884;8.666;2022-09-13T05:12:41;15.10;99.90
3226;DHT22;1625;49.884;8.666;2022-09-13T05:15:07;15.20;99.90
3226;DHT22;1625;49.884;8.666;2022-09-13T05:17:32;15.20;99.90
3226;DHT22;1625;49.884;8.666;2022-09-13T05:19:58;15.20;99.90
3226;DHT22;1625;49.884;8.666;2022-09-13T05:22:23;15.20;99.90
3226;DHT22;1625;49.884;8.666;2022-09-13T05:24:49;15.30;99.90
3226;DHT22;1625;49.884;8.666;2022-09-13T05:27:14;15.30;99.90
3226;DHT22;1625;49.884;8.666;2022-09-13T05:29:40;15.30;99.90
3226;DHT22;1625;49.884;8.666;2022-09-13T05:32:05;15.30;99.90
3226;DHT22;1625;49.884;8.666;2022-09-13T05:34:31;15.30;99.90
3226;DHT22;1625;49.884;8.666;2022-09-13T05:36:56;15.30;99.90
3226;DHT22;1625;49.884;8.666;2022-09-13T05:39:22;15.40;99.90
3226;DHT22;1625;49.884;8.666;2022-09-13T05:41:47;15.40;99.90
3226;DHT22;1625;49.884;8.666;2022-09-13T05:44:13;15.40;99.90
3226;DHT22;1625;49.884;8.666;2022-09-13T05:46:39;15.40;99.90
3226;DHT22;1625;49.884;8.666;2022-09-13T05:49:05;15.50;99.90
3226;DHT22;1625;49.884;8.666;2022-09-13T05:51:30;15.50;99.90
3226;DHT22;1625;49.884;8.666;2022-09-13T05:53:57;15.60;99.90
3226;DHT22;1625;49.884;8.666;2022-09-13T05:56:25;15.60;99.90
3226;DHT22;1625;49.884;8.666;2022-09-13T05:58:52;15.60;99.90
3226;DHT22;1625;49.884;8.666;2022-09-13T06:01:23;15.60;99.90
3226;DHT22;1625;49.884;8.666;2022-09-13T06:03:50;15.70;99.90
3226;DHT22;1625;49.884;8.666;2022-09-13T06:06:16;15.70;99.90
3226;DHT22;1625;49.884;8.666;2022-09-13T06:08:42;15.80;99.90
3226;DHT22;1625;49.884;8.666;2022-09-13T06:11:10;15.80;99.90
3226;DHT22;1625;49.884;8.666;2022-09-13T06:13:37;15.90;99.90
3226;DHT22;1625;49.884;8.666;2022-09-13T06:16:05;15.90;99.90
3226;DHT22;1625;49.884;8.666;2022-09-13T06:18:32;16.00;99.90
3226;DHT22;1625;49.884;8.666;2022-09-13T06:20:59;16.00;99.90
3226;DHT22;1625;49.884;8.666;2022-09-13T06:23:26;16.00;99.90
3226;DHT22;1625;49.884;8.666;2022-09-13T06:26:08;16.00;99.90
3226;DHT22;1625;49.884;8.666;2022-09-13T06:28:34;16.00;99.90
3226;DHT22;1625;49.884;8.666;2022-09-13T06:31:06;16.10;99.90
3226;DHT22;1625;49.884;8.666;2022-09-13T06:33:35;16.10;99.90
3226;DHT22;1625;49.884;8.666;2022-09-13T06:36:08;16.20;99.90
3226;DHT22;1625;49.884;8.666;2022-09-13T06:38:34;16.20;99.90
3226;DHT22;1625;49.884;8.666;2022-09-13T06:41:08;16.20;99.90
3226;DHT22;1625;49.884;8.666;2022-09-13T06:43:35;16.20;99.90
3226;DHT22;1625;49.884;8.666;2022-09-13T06:46:07;16.20;99.90
3226;DHT22;1625;49.884;8.666;2022-09-13T06:48:34;16.20;99.90
3226;DHT22;1625;49.884;8.666;2022-09-13T06:51:03;16.30;99.90
3226;DHT22;1625;49.884;8.666;2022-09-13T06:53:29;16.30;99.90
3226;DHT22;1625;49.884;8.666;2022-09-13T06:56:06;16.30;99.90
3226;DHT22;1625;49.884;8.666;2022-09-13T06:58:34;16.40;99.90
3226;DHT22;1625;49.884;8.666;2022-09-13T07:01:19;16.40;99.90
3226;DHT22;1625;49.884;8.666;2022-09-13T07:03:47;16.40;99.90
3226;DHT22;1625;49.884;8.666;2022-09-13T07:06:28;16.40;99.90
3226;DHT22;1625;49.884;8.666;2022-09-13T07:08:55;16.40;99.90
3226;DHT22;1625;49.884;8.666;2022-09-13T07:11:23;16.50;99.90
3226;DHT22;1625;49.884;8.666;2022-09-13T07:13:56;16.50;99.90
3226;DHT22;1625;49.884;8.666;2022-09-13T07:16:30;16.60;99.90
3226;DHT22;1625;49.884;8.666;2022-09-13T07:19:03;16.60;99.90
3226;DHT22;1625;49.884;8.666;2022-09-13T07:21:30;16.70;99.90
3226;DHT22;1625;49.884;8.666;2022-09-13T07:23:56;16.70;99.90
3226;DHT22;1625;49.884;8.666;2022-09-13T07:26:23;16.70;99.90
3226;DHT22;1625;49.884;8.666;2022-09-13T07:28:52;16.80;99.90
3226;DHT22;1625;49.884;8.666;2022-09-13T07:31:20;16.70;99.90
3226;DHT22;1625;49.884;8.666;2022-09-13T07:33:47;16.80;99.90
3226;DHT22;1625;49.884;8.666;2022-09-13T07:36:13;16.80;99.90
3226;DHT22;1625;49.884;8.666;2022-09-13T07:38:41;16.90;99.90
3226;DHT22;1625;49.884;8.666;2022-09-13T07:41:11;16.90;99.90
3226;DHT22;1625;49.884;8.666;2022-09-13T07:43:37;16.90;99.90
3226;DHT22;1625;49.884;8.666;2022-09-13T07:46:14;16.90;99.90
3226;DHT22;1625;49.884;8.666;2022-09-13T07:48:41;16.90;99.90
3226;DHT22;1625;49.884;8.666;2022-09-13T07:51:12;16.90;99.90
3226;DHT22;1625;49.884;8.666;2022-09-13T07:53:39;16.90;99.90
3226;DHT22;1625;49.884;8.666;2022-09-13T07:56:10;16.90;99.90
3226;DHT22;1625;49.884;8.666;2022-09-13T07:58:38;16.90;99.90
3226;DHT22;1625;49.884;8.666;2022-09-13T08:01:19;16.90;99.90
3226;DHT22;1625;49.884;8.666;2022-09-13T08:03:50;17.00;99.90
3226;DHT22;1625;49.884;8.666;2022-09-13T08:06:16;17.10;99.90
3226;DHT22;1625;49.884;8.666;2022-09-13T08:08:42;17.10;99.90
3226;DHT22;1625;49.884;8.666;2022-09-13T08:11:07;17.10;99.90
3226;DHT22;1625;49.884;8.666;2022-09-13T08:13:35;17.20;99.90
3226;DHT22;1625;49.884;8.666;2022-09-13T08:16:05;17.30;99.90
3226;DHT22;1625;49.884;8.666;2022-09-13T08:18:31;17.30;99.90
3226;DHT22;1625;49.884;8.666;2022-09-13T08:20:58;17.40;99.90
3226;DHT22;1625;49.884;8.666;2022-09-13T08:23:24;17.50;99.90
3226;DHT22;1625;49.884;8.666;2022-09-13T08:25:50;17.50;99.90
3226;DHT22;1625;49.884;8.666;2022-09-13T08:28:17;17.70;99.90
3226;DHT22;1625;49.884;8.666;2022-09-13T08:30:43;17.80;99.90
3226;DHT22;1625;49.884;8.666;2022-09-13T08:33:10;17.90;99.90
3226;DHT22;1625;49.884;8.666;2022-09-13T08:35:36;18.00;99.90
3226;DHT22;1625;49.884;8.666;2022-09-13T08:38:03;18.10;99.90
3226;DHT22;1625;49.884;8.666;2022-09-13T08:40:41;18.10;99.90
3226;DHT22;1625;49.884;8.666;2022-09-13T08:43:14;18.20;99.90
3226;DHT22;1625;49.884;8.666;2022-09-13T08:45:40;18.20;99.90
3226;DHT22;1625;49.884;8.666;2022-09-13T08:48:18;18.20;99.90
3226;DHT22;1625;49.884;8.666;2022-09-13T08:50:47;18.20;99.90
3226;DHT22;1625;49.884;8.666;2022-09-13T08:53:21;18.20;99.90
3226;DHT22;1625;49.884;8.666;2022-09-13T09:01:10;18.20;99.90
3226;DHT22;1625;49.884;8.666;2022-09-13T09:03:50;18.20;99.90
3226;DHT22;1625;49.884;8.666;2022-09-13T09:06:18;18.20;99.90
3226;DHT22;1625;49.884;8.666;2022-09-13T09:08:53;18.20;99.90
3226;DHT22;1625;49.884;8.666;2022-09-13T09:11:36;18.10;99.90
3226;DHT22;1625;49.884;8.666;2022-09-13T09:14:13;18.10;99.90
3226;DHT22;1625;49.884;8.666;2022-09-13T09:16:58;18.00;99.90
3226;DHT22;1625;49.884;8.666;2022-09-13T09:19:35;18.00;99.90
3226;DHT22;1625;49.884;8.666;2022-09-13T09:22:08;17.90;99.90
3226;DHT22;1625;49.884;8.666;2022-09-13T09:24:36;18.00;99.90
3226;DHT22;1625;49.884;8.666;2022-09-13T09:27:12;17.90;99.90
3226;DHT22;1625;49.884;8.666;2022-09-13T09:29:39;17.90;99.90
3226;DHT22;1625;49.884;8.666;2022-09-13T09:37:23;18.20;99.90
3226;DHT22;1625;49.884;8.666;2022-09-13T09:39:52;18.30;99.90
3226;DHT22;1625;49.884;8.666;2022-09-13T09:42:29;18.30;99.90
3226;DHT22;1625;49.884;8.666;2022-09-13T09:45:02;18.40;99.90
3226;DHT22;1625;49.884;8.666;2022-09-13T09:47:33;18.40;99.90
3226;DHT22;1625;49.884;8.666;2022-09-13T09:50:13;18.50;99.90
3226;DHT22;1625;49.884;8.666;2022-09-13T09:52:55;18.50;99.90
3226;DHT22;1625;49.884;8.666;2022-09-13T09:55:49;18.60;99.90
3226;DHT22;1625;49.884;8.666;2022-09-13T09:58:16;18.60;99.90
3226;DHT22;1625;49.884;8.666;2022-09-13T10:00:56;18.50;99.90
3226;DHT22;1625;49.884;8.666;2022-09-13T10:03:28;18.40;99.90
3226;DHT22;1625;49.884;8.666;2022-09-13T10:06:10;18.40;99.90
3226;DHT22;1625;49.884;8.666;2022-09-13T10:08:40;18.30;99.90
3226;DHT22;1625;49.884;8.666;2022-09-13T10:11:06;18.30;99.90
3226;DHT22;1625;49.884;8.666;2022-09-13T10:13:32;18.30;99.90
3226;DHT22;1625;49.884;8.666;2022-09-13T10:16:05;18.30;99.90
3226;DHT22;1625;49.884;8.666;2022-09-13T10:18:36;18.30;99.90
3226;DHT22;1625;49.884;8.666;2022-09-13T10:23:42;18.50;99.90
3226;DHT22;1625;49.884;8.666;2022-09-13T10:26:14;18.50;99.90
3226;DHT22;1625;49.884;8.666;2022-09-13T10:28:50;18.50;99.90
3226;DHT22;1625;49.884;8.666;2022-09-13T10:31:20;18.50;99.90
3226;DHT22;1625;49.884;8.666;2022-09-13T10:36:23;18.50;99.90
3226;DHT22;1625;49.884;8.666;2022-09-13T10:38:59;18.50;99.90
3226;DHT22;1625;49.884;8.666;2022-09-13T10:41:28;18.50;99.90
3226;DHT22;1625;49.884;8.666;2022-09-13T10:43:59;18.50;99.90
3226;DHT22;1625;49.884;8.666;2022-09-13T10:46:27;18.50;99.90
3226;DHT22;1625;49.884;8.666;2022-09-13T10:48:54;18.60;99.90
3226;DHT22;1625;49.884;8.666;2022-09-13T10:56:40;18.70;99.90
3226;DHT22;1625;49.884;8.666;2022-09-13T11:05:08;19.10;99.90
3226;DHT22;1625;49.884;8.666;2022-09-13T11:19:17;19.80;99.90
3226;DHT22;1625;49.884;8.666;2022-09-13T11:22:10;19.70;99.90
3226;DHT22;1625;49.884;8.666;2022-09-13T11:35:24;19.30;99.90
3226;DHT22;1625;49.884;8.666;2022-09-13T11:37:57;19.40;99.90
3226;DHT22;1625;49.884;8.666;2022-09-13T11:40:30;19.40;99.90
3226;DHT22;1625;49.884;8.666;2022-09-13T11:46:14;19.70;99.90
3226;DHT22;1625;49.884;8.666;2022-09-13T11:55:02;19.70;99.90
3226;DHT22;1625;49.884;8.666;2022-09-13T11:57:34;19.50;99.90
3226;DHT22;1625;49.884;8.666;2022-09-13T12:00:04;19.50;99.90
3226;DHT22;1625;49.884;8.666;2022-09-13T12:02:38;19.40;99.90
3226;DHT22;1625;49.884;8.666;2022-09-13T12:05:16;19.50;99.90
3226;DHT22;1625;49.884;8.666;2022-09-13T12:13:05;19.80;99.90
3226;DHT22;1625;49.884;8.666;2022-09-13T12:15:36;19.80;99.90
3226;DHT22;1625;49.884;8.666;2022-09-13T12:18:15;19.90;99.90
3226;DHT22;1625;49.884;8.666;2022-09-13T12:20:48;20.00;99.90
3226;DHT22;1625;49.884;8.666;2022-09-13T12:23:21;20.10;99.90
3226;DHT22;1625;49.884;8.666;2022-09-13T12:25:59;20.20;99.90
3226;DHT22;1625;49.884;8.666;2022-09-13T12:28:45;20.20;99.90
3226;DHT22;1625;49.884;8.666;2022-09-13T12:31:16;20.20;99.90
3226;DHT22;1625;49.884;8.666;2022-09-13T12:33:44;20.20;99.90
3226;DHT22;1625;49.884;8.666;2022-09-13T12:45:10;20.00;99.90
3226;DHT22;1625;49.884;8.666;2022-09-13T12:48:08;20.00;99.90
3226;DHT22;1625;49.884;8.666;2022-09-13T12:50:41;20.00;99.90
3226;DHT22;1625;49.884;8.666;2022-09-13T12:53:29;20.00;99.90
3226;DHT22;1625;49.884;8.666;2022-09-13T12:56:18;20.10;99.90
3226;DHT22;1625;49.884;8.666;2022-09-13T12:59:00;20.20;99.90
3226;DHT22;1625;49.884;8.666;2022-09-13T13:01:30;20.30;99.90
3226;DHT22;1625;49.884;8.666;2022-09-13T13:04:01;20.40;99.90
3226;DHT22;1625;49.884;8.666;2022-09-13T13:06:35;20.40;99.90
3226;DHT22;1625;49.884;8.666;2022-09-13T13:09:40;20.50;99.90
3226;DHT22;1625;49.884;8.666;2022-09-13T13:12:23;20.50;99.90
3226;DHT22;1625;49.884;8.666;2022-09-13T13:14:51;20.60;99.90
3226;DHT22;1625;49.884;8.666;2022-09-13T13:17:43;20.70;99.90
3226;DHT22;1625;49.884;8.666;2022-09-13T13:26:06;20.90;99.90
3226;DHT22;1625;49.884;8.666;2022-09-13T13:36:42;20.80;99.90
3226;DHT22;1625;49.884;8.666;2022-09-13T13:57:26;20.60;99.90
3226;DHT22;1625;49.884;8.666;2022-09-13T14:00:05;20.70;99.90
3226;DHT22;1625;49.884;8.666;2022-09-13T14:05:29;20.70;99.90
3226;DHT22;1625;49.884;8.666;2022-09-13T14:16:15;20.80;99.90
3226;DHT22;1625;49.884;8.666;2022-09-13T14:21:21;20.80;99.90
3226;DHT22;1625;49.884;8.666;2022-09-13T14:23:48;20.80;99.90
3226;DHT22;1625;49.884;8.666;2022-09-13T14:26:14;20.80;99.90
3226;DHT22;1625;49.884;8.666;2022-09-13T14:28:39;20.80;99.90
3226;DHT22;1625;49.884;8.666;2022-09-13T14:31:06;20.80;99.90
3226;DHT22;1625;49.884;8.666;2022-09-13T14:33:34;20.80;99.90
3226;DHT22;1625;49.884;8.666;2022-09-13T14:36:06;20.80;99.90
3226;DHT22;1625;49.884;8.666;2022-09-13T14:38:34;20.80;99.90
3226;DHT22;1625;49.884;8.666;2022-09-13T14:41:10;20.80;99.90
3226;DHT22;1625;49.884;8.666;2022-09-13T14:43:37;20.80;99.90
3226;DHT22;1625;49.884;8.666;2022-09-13T14:46:15;20.70;99.90
3226;DHT22;1625;49.884;8.666;2022-09-13T14:48:56;20.70;99.90
3226;DHT22;1625;49.884;8.666;2022-09-13T14:51:34;20.70;99.90
3226;DHT22;1625;49.884;8.666;2022-09-13T14:56:44;20.60;99.90
3226;DHT22;1625;49.884;8.666;2022-09-13T14:59:15;20.60;99.90
3226;DHT22;1625;49.884;8.666;2022-09-13T15:01:42;20.60;99.90
3226;DHT22;1625;49.884;8.666;2022-09-13T15:04:08;20.60;99.90
3226;DHT22;1625;49.884;8.666;2022-09-13T15:06:36;20.60;99.90
3226;DHT22;1625;49.884;8.666;2022-09-13T15:17:07;20.60;99.90
3226;DHT22;1625;49.884;8.666;2022-09-13T15:19:49;20.60;99.90
3226;DHT22;1625;49.884;8.666;2022-09-13T15:24:55;20.50;99.90
3226;DHT22;1625;49.884;8.666;2022-09-13T15:27:42;20.50;99.90
3226;DHT22;1625;49.884;8.666;2022-09-13T15:30:24;20.40;99.90
3226;DHT22;1625;49.884;8.666;2022-09-13T15:35:37;20.40;99.90
3226;DHT22;1625;49.884;8.666;2022-09-13T15:38:26;20.30;99.90
3226;DHT22;1625;49.884;8.666;2022-09-13T15:41:12;20.30;99.90
3226;DHT22;1625;49.884;8.666;2022-09-13T15:43:38;20.30;99.90
3226;DHT22;1625;49.884;8.666;2022-09-13T15:46:05;20.20;99.90
3226;DHT22;1625;49.884;8.666;2022-09-13T15:48:35;20.20;99.90
3226;DHT22;1625;49.884;8.666;2022-09-13T15:51:08;20.20;99.90
3226;DHT22;1625;49.884;8.666;2022-09-13T15:53:35;20.20;99.90
3226;DHT22;1625;49.884;8.666;2022-09-13T15:56:03;20.20;99.90
3226;DHT22;1625;49.884;8.666;2022-09-13T15:58:29;20.20;99.90
3226;DHT22;1625;49.884;8.666;2022-09-13T16:00:55;20.10;99.90
3226;DHT22;1625;49.884;8.666;2022-09-13T16:03:20;20.10;99.90
3226;DHT22;1625;49.884;8.666;2022-09-13T16:05:46;20.10;99.90
3226;DHT22;1625;49.884;8.666;2022-09-13T16:08:11;20.10;99.90
3226;DHT22;1625;49.884;8.666;2022-09-13T16:10:37;20.10;99.90
3226;DHT22;1625;49.884;8.666;2022-09-13T16:13:03;20.10;99.90
3226;DHT22;1625;49.884;8.666;2022-09-13T16:15:29;20.00;99.90
3226;DHT22;1625;49.884;8.666;2022-09-13T16:17:54;20.00;99.90
3226;DHT22;1625;49.884;8.666;2022-09-13T16:20:20;20.00;99.90
3226;DHT22;1625;49.884;8.666;2022-09-13T16:22:46;20.00;99.90
3226;DHT22;1625;49.884;8.666;2022-09-13T16:25:13;20.00;99.90
3226;DHT22;1625;49.884;8.666;2022-09-13T16:27:40;20.00;99.90
3226;DHT22;1625;49.884;8.666;2022-09-13T16:30:06;20.00;99.90
3226;DHT22;1625;49.884;8.666;2022-09-13T16:32:32;20.00;99.90
3226;DHT22;1625;49.884;8.666;2022-09-13T16:34:57;19.90;99.90
3226;DHT22;1625;49.884;8.666;2022-09-13T16:37:23;19.90;99.90
3226;DHT22;1625;49.884;8.666;2022-09-13T16:39:49;19.90;99.90
3226;DHT22;1625;49.884;8.666;2022-09-13T16:42:15;19.90;99.90
3226;DHT22;1625;49.884;8.666;2022-09-13T16:44:44;19.90;99.90
3226;DHT22;1625;49.884;8.666;2022-09-13T16:47:10;19.80;99.90
3226;DHT22;1625;49.884;8.666;2022-09-13T16:49:35;19.80;99.90
3226;DHT22;1625;49.884;8.666;2022-09-13T16:52:01;19.80;99.90
3226;DHT22;1625;49.884;8.666;2022-09-13T16:54:28;19.80;99.90
3226;DHT22;1625;49.884;8.666;2022-09-13T17:00:15;19.70;99.90
3226;DHT22;1625;49.884;8.666;2022-09-13T17:02:41;19.80;99.90
3226;DHT22;1625;49.884;8.666;2022-09-13T17:05:07;19.70;99.90
3226;DHT22;1625;49.884;8.666;2022-09-13T17:07:34;19.70;99.90
3226;DHT22;1625;49.884;8.666;2022-09-13T17:10:02;19.70;99.90
3226;DHT22;1625;49.884;8.666;2022-09-13T17:12:27;19.70;99.90
3226;DHT22;1625;49.884;8.666;2022-09-13T17:14:53;19.70;99.90
3226;DHT22;1625;49.884;8.666;2022-09-13T17:17:19;19.70;99.90
3226;DHT22;1625;49.884;8.666;2022-09-13T17:19:44;19.70;99.90
3226;DHT22;1625;49.884;8.666;2022-09-13T17:22:14;19.70;99.90
3226;DHT22;1625;49.884;8.666;2022-09-13T17:24:40;19.60;99.90
3226;DHT22;1625;49.884;8.666;2022-09-13T17:27:07;19.60;99.90
3226;DHT22;1625;49.884;8.666;2022-09-13T17:29:34;19.60;99.90
3226;DHT22;1625;49.884;8.666;2022-09-13T17:32:01;19.60;99.90
3226;DHT22;1625;49.884;8.666;2022-09-13T17:34:27;19.50;99.90
3226;DHT22;1625;49.884;8.666;2022-09-13T17:36:53;19.60;99.90
3226;DHT22;1625;49.884;8.666;2022-09-13T17:39:19;19.50;99.90
3226;DHT22;1625;49.884;8.666;2022-09-13T17:41:45;19.50;99.90
3226;DHT22;1625;49.884;8.666;2022-09-13T17:44:10;19.50;99.90
3226;DHT22;1625;49.884;8.666;2022-09-13T17:46:39;19.50;99.90
3226;DHT22;1625;49.884;8.666;2022-09-13T17:49:05;19.40;99.90
3226;DHT22;1625;49.884;8.666;2022-09-13T17:51:31;19.40;99.90
3226;DHT22;1625;49.884;8.666;2022-09-13T17:54:04;19.40;99.90
3226;DHT22;1625;49.884;8.666;2022-09-13T17:56:36;19.40;99.90
3226;DHT22;1625;49.884;8.666;2022-09-13T17:59:14;19.40;99.90
3226;DHT22;1625;49.884;8.666;2022-09-13T18:01:42;19.40;99.90
3226;DHT22;1625;49.884;8.666;2022-09-13T18:04:09;19.40;99.90
3226;DHT22;1625;49.884;8.666;2022-09-13T18:06:35;19.40;99.90
3226;DHT22;1625;49.884;8.666;2022-09-13T18:09:02;19.40;99.90
3226;DHT22;1625;49.884;8.666;2022-09-13T18:11:28;19.30;99.90
3226;DHT22;1625;49.884;8.666;2022-09-13T18:13:53;19.40;99.90
3226;DHT22;1625;49.884;8.666;2022-09-13T18:16:21;19.30;99.90
3226;DHT22;1625;49.884;8.666;2022-09-13T18:18:48;19.30;99.90
3226;DHT22;1625;49.884;8.666;2022-09-13T18:21:15;19.30;99.90
3226;DHT22;1625;49.884;8.666;2022-09-13T18:23:45;19.30;99.90
3226;DHT22;1625;49.884;8.666;2022-09-13T18:26:13;19.30;99.90
3226;DHT22;1625;49.884;8.666;2022-09-13T18:28:40;19.20;99.90
3226;DHT22;1625;49.884;8.666;2022-09-13T18:31:12;19.30;99.90
3226;DHT22;1625;49.884;8.666;2022-09-13T18:33:38;19.20;99.90
3226;DHT22;1625;49.884;8.666;2022-09-13T18:36:12;19.20;99.90
3226;DHT22;1625;49.884;8.666;2022-09-13T18:38:40;19.20;99.90
3226;DHT22;1625;49.884;8.666;2022-09-13T18:41:13;19.20;99.90
3226;DHT22;1625;49.884;8.666;2022-09-13T18:43:41;19.20;99.90
3226;DHT22;1625;49.884;8.666;2022-09-13T18:46:09;19.10;99.90
3226;DHT22;1625;49.884;8.666;2022-09-13T18:48:38;19.20;99.90
3226;DHT22;1625;49.884;8.666;2022-09-13T18:51:04;19.20;99.90
3226;DHT22;1625;49.884;8.666;2022-09-13T18:53:33;19.20;99.90
3226;DHT22;1625;49.884;8.666;2022-09-13T18:56:04;19.20;99.90
3226;DHT22;1625;49.884;8.666;2022-09-13T18:58:30;19.20;99.90
3226;DHT22;1625;49.884;8.666;2022-09-13T19:01:16;19.20;99.90
3226;DHT22;1625;49.884;8.666;2022-09-13T19:03:51;19.10;99.90
3226;DHT22;1625;49.884;8.666;2022-09-13T19:06:28;19.10;99.90
3226;DHT22;1625;49.884;8.666;2022-09-13T19:08:55;19.10;99.90
3226;DHT22;1625;49.884;8.666;2022-09-13T19:11:23;19.10;99.90
3226;DHT22;1625;49.884;8.666;2022-09-13T19:13:49;19.10;99.90
3226;DHT22;1625;49.884;8.666;2022-09-13T19:16:16;19.10;99.90
3226;DHT22;1625;49.884;8.666;2022-09-13T19:18:44;19.10;99.90
3226;DHT22;1625;49.884;8.666;2022-09-13T19:21:14;19.10;99.90
3226;DHT22;1625;49.884;8.666;2022-09-13T19:23:41;19.10;99.90
3226;DHT22;1625;49.884;8.666;2022-09-13T19:26:16;19.10;99.90
3226;DHT22;1625;49.884;8.666;2022-09-13T19:28:50;19.10;99.90
3226;DHT22;1625;49.884;8.666;2022-09-13T19:31:21;19.10;99.90
3226;DHT22;1625;49.884;8.666;2022-09-13T19:33:47;19.00;99.90
3226;DHT22;1625;49.884;8.666;2022-09-13T19:36:16;19.00;99.90
3226;DHT22;1625;49.884;8.666;2022-09-13T19:38:42;19.00;99.90
3226;DHT22;1625;49.884;8.666;2022-09-13T19:41:13;19.00;99.90
3226;DHT22;1625;49.884;8.666;2022-09-13T19:43:40;19.00;99.90
3226;DHT22;1625;49.884;8.666;2022-09-13T19:46:08;19.00;99.90
3226;DHT22;1625;49.884;8.666;2022-09-13T19:48:38;19.00;99.90
3226;DHT22;1625;49.884;8.666;2022-09-13T19:51:07;19.00;99.90
3226;DHT22;1625;49.884;8.666;2022-09-13T19:53:35;19.00;99.90
3226;DHT22;1625;49.884;8.666;2022-09-13T19:56:06;19.00;99.90
3226;DHT22;1625;49.884;8.666;2022-09-13T19:58:32;19.00;99.90
3226;DHT22;1625;49.884;8.666;2022-09-13T20:01:50;19.00;99.90
3226;DHT22;1625;49.884;8.666;2022-09-13T20:04:01;19.00;99.90
3226;DHT22;1625;49.884;8.666;2022-09-13T20:06:31;18.90;99.90
3226;DHT22;1625;49.884;8.666;2022-09-13T20:08:59;19.00;99.90
3226;DHT22;1625;49.884;8.666;2022-09-13T20:11:25;18.90;99.90
3226;DHT22;1625;49.884;8.666;2022-09-13T20:13:52;18.90;99.90
3226;DHT22;1625;49.884;8.666;2022-09-13T20:16:21;18.90;99.90
3226;DHT22;1625;49.884;8.666;2022-09-13T20:18:47;18.90;99.90
3226;DHT22;1625;49.884;8.666;2022-09-13T20:21:13;18.90;99.90
3226;DHT22;1625;49.884;8.666;2022-09-13T20:23:41;18.90;99.90
3226;DHT22;1625;49.884;8.666;2022-09-13T20:26:14;18.90;99.90
3226;DHT22;1625;49.884;8.666;2022-09-13T20:28:40;19.00;99.90
3226;DHT22;1625;49.884;8.666;2022-09-13T20:31:06;18.90;99.90
3226;DHT22;1625;49.884;8.666;2022-09-13T20:33:32;18.90;99.90
3226;DHT22;1625;49.884;8.666;2022-09-13T20:36:04;18.90;99.90
3226;DHT22;1625;49.884;8.666;2022-09-13T20:38:30;18.90;99.90
3226;DHT22;1625;49.884;8.666;2022-09-13T20:41:02;18.90;99.90
3226;DHT22;1625;49.884;8.666;2022-09-13T20:43:27;18.90;99.90
3226;DHT22;1625;49.884;8.666;2022-09-13T20:45:54;18.90;99.90
3226;DHT22;1625;49.884;8.666;2022-09-13T20:48:20;18.90;99.90
3226;DHT22;1625;49.884;8.666;2022-09-13T20:50:55;18.90;99.90
3226;DHT22;1625;49.884;8.666;2022-09-13T20:53:20;18.90;99.90
3226;DHT22;1625;49.884;8.666;2022-09-13T20:55:46;18.90;99.90
3226;DHT22;1625;49.884;8.666;2022-09-13T20:58:12;18.90;99.90
3226;DHT22;1625;49.884;8.666;2022-09-13T21:00:38;18.90;99.90
3226;DHT22;1625;49.884;8.666;2022-09-13T21:03:03;18.90;99.90
3226;DHT22;1625;49.884;8.666;2022-09-13T21:05:29;18.80;99.90
3226;DHT22;1625;49.884;8.666;2022-09-13T21:07:54;18.80;99.90
3226;DHT22;1625;49.884;8.666;2022-09-13T21:10:38;18.80;99.90
3226;DHT22;1625;49.884;8.666;2022-09-13T21:13:04;18.80;99.90
3226;DHT22;1625;49.884;8.666;2022-09-13T21:15:33;18.90;99.90
3226;DHT22;1625;49.884;8.666;2022-09-13T21:17:59;18.80;99.90
3226;DHT22;1625;49.884;8.666;2022-09-13T21:20:25;18.80;99.90
3226;DHT22;1625;49.884;8.666;2022-09-13T21:22:51;18.80;99.90
3226;DHT22;1625;49.884;8.666;2022-09-13T21:25:17;18.80;99.90
3226;DHT22;1625;49.884;8.666;2022-09-13T21:27:44;18.80;99.90
3226;DHT22;1625;49.884;8.666;2022-09-13T21:30:10;18.80;99.90
3226;DHT22;1625;49.884;8.666;2022-09-13T21:32:36;18.80;99.90
3226;DHT22;1625;49.884;8.666;2022-09-13T21:35:01;18.80;99.90
3226;DHT22;1625;49.884;8.666;2022-09-13T21:37:27;18.90;99.90
3226;DHT22;1625;49.884;8.666;2022-09-13T21:39:52;18.80;99.90
3226;DHT22;1625;49.884;8.666;2022-09-13T21:42:18;18.80;99.90
3226;DHT22;1625;49.884;8.666;2022-09-13T21:44:43;18.80;99.90
3226;DHT22;1625;49.884;8.666;2022-09-13T21:47:09;18.80;99.90
3226;DHT22;1625;49.884;8.666;2022-09-13T21:49:35;18.80;99.90
3226;DHT22;1625;49.884;8.666;2022-09-13T21:52:01;18.80;99.90
3226;DHT22;1625;49.884;8.666;2022-09-13T21:54:26;18.80;99.90
3226;DHT22;1625;49.884;8.666;2022-09-13T21:56:52;18.80;99.90
3226;DHT22;1625;49.884;8.666;2022-09-13T21:59:20;18.80;99.90
3226;DHT22;1625;49.884;8.666;2022-09-13T22:01:49;18.80;99.90
3226;DHT22;1625;49.884;8.666;2022-09-13T22:04:23;18.80;99.90
3226;DHT22;1625;49.884;8.666;2022-09-13T22:06:50;18.80;99.90
3226;DHT22;1625;49.884;8.666;2022-09-13T22:09:16;18.70;99.90
3226;DHT22;1625;49.884;8.666;2022-09-13T22:11:44;18.80;99.90
3226;DHT22;1625;49.884;8.666;2022-09-13T22:14:13;18.70;99.90